Time;durP1;ratioP1;P1;durP2;ratioP2;P2;SDS_P1;SDS_P2;PMS_P1;PMS_P2;Temp;Humidity;BMP_temperature;BMP_pressure;BME280_temperature;BME280_humidity;BME280_pressure;Samples;Min_cycle;Max_cycle;Signal;HPM_P1;HPM_P2
2020/12/07 00:00:56;;;;;;;16.00;4.88;;;180.10;1971.20;;;;;;5035686;28;20040;-78
2020/12/07 00:03:21;;;;;;;8.52;4.55;;;180.10;1996.80;;;;;;5036144;28;20438;-78
2020/12/07 00:05:47;;;;;;;9.90;4.18;;;180.10;1971.20;;;;;;5035797;28;20022;-77
2020/12/07 00:08:13;;;;;;;7.57;3.85;;;180.10;1971.20;;;;;;5034912;28;20033;-79
2020/12/07 00:10:39;;;;;;;8.07;3.72;;;180.10;1971.20;;;;;;5036819;28;20033;-79
2020/12/07 00:13:04;;;;;;;8.27;3.80;;;180.10;1971.20;;;;;;5036280;28;20029;-79
2020/12/07 00:15:30;;;;;;;9.43;4.00;;;180.10;1971.20;;;;;;5035600;28;20036;-79
2020/12/07 00:17:56;;;;;;;3.97;2.53;;;180.10;1971.20;;;;;;5036694;28;20099;-78
2020/12/07 00:20:21;;;;;;;4.15;2.78;;;180.10;1945.60;;;;;;5036606;28;20025;-79
2020/12/07 00:22:47;;;;;;;6.13;3.03;;;180.10;1945.60;;;;;;5036650;28;20505;-79
2020/12/07 00:25:13;;;;;;;4.63;2.95;;;180.00;1945.60;;;;;;5036568;28;20056;-78
2020/12/07 00:27:38;;;;;;;7.10;2.85;;;180.10;1971.20;;;;;;5036277;28;20049;-78
2020/12/07 00:30:05;;;;;;;9.40;3.20;;;180.00;1945.60;;;;;;5035533;28;20042;-78
2020/12/07 00:33:10;;;;;;;6.82;3.58;;;180.00;1945.60;;;;;;5036384;28;20029;-78
2020/12/07 00:35:36;;;;;;;4.75;2.40;;;180.00;1945.60;;;;;;5035885;28;20380;-78
2020/12/07 00:38:02;;;;;;;4.85;2.33;;;180.00;1945.60;;;;;;5036075;28;20056;-78
2020/12/07 00:40:27;;;;;;;3.78;2.33;;;180.00;1945.60;;;;;;5036593;28;20033;-77
2020/12/07 00:42:53;;;;;;;4.25;2.70;;;179.90;1971.20;;;;;;5036232;28;20108;-77
2020/12/07 00:45:19;;;;;;;3.33;2.13;;;180.00;1945.60;;;;;;5035744;28;20422;-79
2020/12/07 00:51:06;;;;;;;9.15;4.18;;;179.90;1971.20;;;;;;5036072;28;20037;-79
2020/12/07 00:53:32;;;;;;;2.50;1.85;;;179.90;1945.60;;;;;;5036156;28;20403;-78
2020/12/07 00:55:58;;;;;;;3.53;2.10;;;179.90;1945.60;;;;;;5035854;28;20167;-78
2020/12/07 00:58:24;;;;;;;3.05;1.80;;;179.90;1971.20;;;;;;5034674;28;20581;-78
2020/12/07 01:01:26;;;;;;;4.45;2.13;;;180.00;1945.60;;;;;;5036039;28;20148;-77
2020/12/07 01:03:52;;;;;;;5.97;2.40;;;180.00;1945.60;;;;;;5034746;28;20029;-79
2020/12/07 01:06:17;;;;;;;5.85;2.47;;;180.00;1945.60;;;;;;5034581;28;20026;-78
2020/12/07 01:08:43;;;;;;;3.25;2.30;;;180.00;1945.60;;;;;;5034421;28;20025;-78
2020/12/07 01:11:09;;;;;;;4.47;2.83;;;180.00;1945.60;;;;;;5034234;28;20074;-78
2020/12/07 01:13:34;;;;;;;7.03;2.25;;;180.00;1945.60;;;;;;5035659;28;20064;-78
2020/12/07 01:16:31;;;;;;;5.03;2.60;;;180.00;1945.60;;;;;;5035768;28;20045;-78
2020/12/07 01:18:57;;;;;;;4.22;2.60;;;180.00;1945.60;;;;;;5035699;28;20116;-79
2020/12/07 01:21:23;;;;;;;7.90;3.17;;;180.00;1945.60;;;;;;5035534;28;20434;-78
2020/12/07 01:23:48;;;;;;;4.00;2.53;;;180.00;1945.60;;;;;;5035059;28;20029;-78
2020/12/07 01:26:15;;;;;;;6.00;2.72;;;180.00;1945.60;;;;;;5035155;28;20475;-79
2020/12/07 01:28:41;;;;;;;4.60;2.70;;;180.00;1945.60;;;;;;5035492;28;20022;-79
2020/12/07 01:31:07;;;;;;;5.43;2.63;;;179.90;1945.60;;;;;;5035375;28;20026;-79
2020/12/07 01:33:33;;;;;;;4.07;2.20;;;179.90;1945.60;;;;;;5033679;28;20021;-78
2020/12/07 01:35:58;;;;;;;4.90;2.75;;;179.90;1945.60;;;;;;5034964;28;20063;-79
2020/12/07 01:38:24;;;;;;;5.25;2.95;;;179.90;1945.60;;;;;;5034616;28;20061;-78
2020/12/07 01:40:50;;;;;;;5.70;3.10;;;179.90;1945.60;;;;;;5035180;28;20041;-79
2020/12/07 01:43:17;;;;;;;4.82;3.03;;;179.90;1971.20;;;;;;5017554;28;20426;-78
2020/12/07 01:45:43;;;;;;;4.03;2.42;;;179.80;1971.20;;;;;;5035039;28;20143;-79
2020/12/07 01:48:46;;;;;;;5.32;3.15;;;179.80;1971.20;;;;;;5033319;28;20128;-78
2020/12/07 01:51:14;;;;;;;3.75;2.38;;;179.80;1971.20;;;;;;5034764;28;20025;-78
2020/12/07 01:53:39;;;;;;;4.90;2.70;;;179.80;1971.20;;;;;;5034674;28;20018;-79
2020/12/07 01:56:09;;;;;;;3.95;2.70;;;179.80;1971.20;;;;;;5034672;28;20060;-79
2020/12/07 01:58:34;;;;;;;3.22;2.13;;;179.80;1971.20;;;;;;5034645;28;20041;-78
2020/12/07 02:01:02;;;;;;;4.65;2.80;;;179.80;1971.20;;;;;;5034644;28;20028;-78
2020/12/07 02:03:28;;;;;;;7.45;3.20;;;179.70;1971.20;;;;;;5034381;28;20052;-78
2020/12/07 02:05:54;;;;;;;4.85;3.00;;;179.70;1971.20;;;;;;5034858;28;20034;-79
2020/12/07 02:08:20;;;;;;;4.00;2.72;;;179.70;1971.20;;;;;;5034340;28;20022;-78
2020/12/07 02:10:47;;;;;;;4.22;2.35;;;179.70;1971.20;;;;;;5034806;28;20631;-79
2020/12/07 02:13:13;;;;;;;3.30;2.20;;;179.60;1971.20;;;;;;5034522;28;20033;-78
2020/12/07 02:15:39;;;;;;;4.50;3.03;;;179.60;1971.20;;;;;;5034435;28;20067;-78
2020/12/07 02:18:06;;;;;;;6.03;2.35;;;179.60;1971.20;;;;;;5034350;28;20064;-78
2020/12/07 02:20:33;;;;;;;5.28;2.80;;;179.60;1996.80;;;;;;5034348;28;20026;-79
2020/12/07 02:22:59;;;;;;;3.25;2.50;;;179.60;1996.80;;;;;;5034312;28;20075;-79
2020/12/07 02:25:24;;;;;;;4.68;2.90;;;179.60;1996.80;;;;;;5033980;28;20029;-79
2020/12/07 02:27:52;;;;;;;3.75;2.80;;;179.60;1996.80;;;;;;5034131;28;20067;-78
2020/12/07 02:30:19;;;;;;;3.78;2.60;;;179.60;1996.80;;;;;;5034376;28;20029;-79
2020/12/07 02:33:26;;;;;;;4.22;2.67;;;179.50;1996.80;;;;;;5034030;28;20021;-79
2020/12/07 02:35:51;;;;;;;4.63;2.30;;;179.50;1996.80;;;;;;5034185;28;20479;-78
2020/12/07 02:38:17;;;;;;;4.70;2.22;;;179.50;1996.80;;;;;;5032817;28;20055;-79
2020/12/07 02:40:43;;;;;;;7.90;4.65;;;179.50;1996.80;;;;;;5033886;28;20029;-78
2020/12/07 02:43:08;;;;;;;6.20;3.25;;;179.50;1996.80;;;;;;5034119;28;20030;-77
2020/12/07 02:45:34;;;;;;;5.03;2.70;;;179.50;1996.80;;;;;;5033496;28;20038;-78
2020/12/07 02:48:00;;;;;;;4.20;2.53;;;179.50;1996.80;;;;;;5034218;28;20033;-78
2020/12/07 02:50:25;;;;;;;4.25;2.33;;;179.50;1996.80;;;;;;5033941;28;20125;-77
2020/12/07 02:52:51;;;;;;;4.95;2.92;;;179.50;1996.80;;;;;;5034082;28;20041;-78
2020/12/07 02:55:17;;;;;;;3.38;2.33;;;179.50;1996.80;;;;;;5034216;28;20040;-78
2020/12/07 02:57:42;;;;;;;3.08;2.25;;;179.50;1996.80;;;;;;5032852;28;20034;-78
2020/12/07 03:00:08;;;;;;;6.45;2.50;;;179.40;1996.80;;;;;;5036309;28;20022;-78
2020/12/07 03:02:35;;;;;;;4.65;2.63;;;179.40;2022.40;;;;;;5038299;28;20033;-78
2020/12/07 03:05:04;;;;;;;5.13;2.80;;;179.30;2022.40;;;;;;5037907;28;20029;-78
2020/12/07 03:07:30;;;;;;;6.63;3.00;;;179.30;1996.80;;;;;;5038021;28;20105;-77
2020/12/07 03:09:56;;;;;;;5.60;3.72;;;179.40;2022.40;;;;;;5037846;28;20049;-78
2020/12/07 03:12:22;;;;;;;5.40;3.38;;;179.30;2022.40;;;;;;5037384;28;20025;-78
2020/12/07 03:14:48;;;;;;;10.02;4.25;;;179.30;2022.40;;;;;;5037634;28;20040;-78
2020/12/07 03:17:13;;;;;;;18.35;9.43;;;179.20;2022.40;;;;;;5036646;28;20028;-77
2020/12/07 03:19:39;;;;;;;22.20;11.63;;;179.20;2022.40;;;;;;5037901;28;20030;-78
2020/12/07 03:22:05;;;;;;;8.77;4.40;;;179.20;2022.40;;;;;;5037513;28;20494;-78
2020/12/07 03:24:30;;;;;;;5.35;3.53;;;179.20;2048.00;;;;;;5036481;28;20029;-77
2020/12/07 03:26:56;;;;;;;7.13;3.92;;;179.20;2022.40;;;;;;5037438;28;20533;-79
2020/12/07 03:29:22;;;;;;;5.63;3.70;;;179.20;2022.40;;;;;;5037330;28;20022;-78
2020/12/07 03:32:06;;;;;;;9.27;2.97;;;179.20;2022.40;;;;;;5036120;28;20025;-78
2020/12/07 03:34:32;;;;;;;18.87;3.80;;;179.20;2022.40;;;;;;5037137;28;20072;-79
2020/12/07 03:36:57;;;;;;;4.70;3.40;;;179.20;2022.40;;;;;;5037154;28;20061;-79
2020/12/07 03:39:23;;;;;;;6.00;3.35;;;179.20;2022.40;;;;;;5036097;28;20025;-79
2020/12/07 03:41:49;;;;;;;5.38;3.60;;;179.20;2022.40;;;;;;5036893;28;20537;-79
2020/12/07 03:44:14;;;;;;;9.35;3.38;;;179.20;2022.40;;;;;;5036862;28;20033;-78
2020/12/07 03:47:00;;;;;;;7.28;3.67;;;179.20;2022.40;;;;;;5037202;28;20025;-77
2020/12/07 03:49:26;;;;;;;11.10;4.30;;;179.20;2022.40;;;;;;5037334;28;20523;-78
2020/12/07 03:51:51;;;;;;;7.43;3.10;;;179.20;2022.40;;;;;;5037535;28;20057;-78
2020/12/07 03:54:17;;;;;;;7.60;3.38;;;179.20;2022.40;;;;;;5037182;28;20379;-78
2020/12/07 03:56:43;;;;;;;5.53;3.78;;;179.20;2022.40;;;;;;5036777;28;20029;-79
2020/12/07 03:59:08;;;;;;;5.75;2.90;;;179.20;2022.40;;;;;;5037221;28;20432;-78
2020/12/07 04:01:40;;;;;;;13.88;3.92;;;154.50;2022.40;;;;;;5037035;28;20033;-79
2020/12/07 04:04:09;;;;;;;4.97;3.30;;;154.50;2022.40;;;;;;5037035;28;20471;-78
2020/12/07 04:06:39;;;;;;;5.75;3.58;;;154.50;2022.40;;;;;;5036649;28;20036;-78
2020/12/07 04:09:05;;;;;;;7.72;3.50;;;154.40;2022.40;;;;;;5035692;28;20096;-78
2020/12/07 04:11:31;;;;;;;8.57;3.95;;;154.50;2048.00;;;;;;5035050;28;20064;-78
2020/12/07 04:13:57;;;;;;;6.43;3.65;;;154.50;2048.00;;;;;;5036495;28;20028;-79
2020/12/07 04:16:27;;;;;;;6.55;3.20;;;154.40;2048.00;;;;;;5036534;28;20025;-78
2020/12/07 04:19:30;;;;;;;4.80;3.40;;;154.40;2048.00;;;;;;5035268;28;20532;-78
2020/12/07 04:21:55;;;;;;;5.78;3.70;;;154.40;2048.00;;;;;;5035314;28;20487;-78
2020/12/07 04:24:21;;;;;;;10.63;3.85;;;154.40;2048.00;;;;;;5036463;28;20018;-79
2020/12/07 04:26:48;;;;;;;6.45;4.00;;;154.50;2048.00;;;;;;5035990;28;20025;-79
2020/12/07 04:29:14;;;;;;;14.85;4.55;;;154.40;2048.00;;;;;;5035167;28;20026;-78
2020/12/07 04:32:11;;;;;;;6.50;4.05;;;154.40;2048.00;;;;;;5036242;28;20105;-79
2020/12/07 04:34:36;;;;;;;8.00;4.40;;;154.40;2048.00;;;;;;5036113;28;20064;-78
2020/12/07 04:37:02;;;;;;;6.75;3.92;;;154.40;2048.00;;;;;;5036224;28;20395;-79
2020/12/07 04:39:28;;;;;;;7.18;4.25;;;154.40;2048.00;;;;;;5035629;28;20061;-78
2020/12/07 04:41:53;;;;;;;7.13;4.07;;;154.40;2048.00;;;;;;5035342;28;20053;-79
2020/12/07 04:44:19;;;;;;;8.07;4.13;;;154.40;2048.00;;;;;;5036605;28;20378;-78
2020/12/07 04:46:46;;;;;;;7.93;4.63;;;154.40;2048.00;;;;;;5036182;28;20033;-78
2020/12/07 04:49:14;;;;;;;9.45;4.20;;;154.40;2048.00;;;;;;5036396;28;20380;-78
2020/12/07 04:51:41;;;;;;;9.05;3.95;;;154.40;2048.00;;;;;;5036370;28;20034;-78
2020/12/07 04:54:08;;;;;;;13.70;4.90;;;154.40;2048.00;;;;;;5036055;28;20029;-79
2020/12/07 04:56:35;;;;;;;11.88;5.13;;;154.20;2048.00;;;;;;5036188;28;20021;-78
2020/12/07 04:59:01;;;;;;;8.00;4.65;;;154.40;2048.00;;;;;;5035891;28;20034;-78
2020/12/07 05:01:27;;;;;;;10.90;4.88;;;154.30;2048.00;;;;;;5036070;28;20017;-78
2020/12/07 05:03:53;;;;;;;8.63;4.60;;;154.30;2048.00;;;;;;5035940;28;20055;-78
2020/12/07 05:06:19;;;;;;;10.48;4.95;;;154.30;2073.60;;;;;;5034629;28;20117;-79
2020/12/07 05:08:46;;;;;;;9.38;5.70;;;154.30;2073.60;;;;;;5035775;28;20589;-78
2020/12/07 05:11:12;;;;;;;5.60;4.45;;;154.30;2073.60;;;;;;5036076;28;20029;-79
2020/12/07 05:13:42;;;;;;;6.55;4.90;;;154.30;2073.60;;;;;;5034621;28;20021;-79
2020/12/07 05:16:09;;;;;;;10.25;4.68;;;154.30;2073.60;;;;;;5035733;28;20502;-79
2020/12/07 05:18:52;;;;;;;8.02;5.28;;;154.20;2073.60;;;;;;5035535;28;20049;-79
2020/12/07 05:21:18;;;;;;;10.68;4.90;;;154.30;2073.60;;;;;;5034861;28;20079;-79
2020/12/07 05:23:49;;;;;;;9.23;5.55;;;154.20;2073.60;;;;;;5035330;28;20025;-78
2020/12/07 05:26:17;;;;;;;7.28;4.95;;;154.20;2073.60;;;;;;5035351;28;20108;-78
2020/12/07 05:28:47;;;;;;;9.10;4.63;;;154.30;2073.60;;;;;;5035316;28;20029;-78
2020/12/07 05:31:21;;;;;;;8.98;4.60;;;154.10;2073.60;;;;;;5035538;28;20036;-79
2020/12/07 05:37:09;;;;;;;11.65;4.18;;;154.30;2073.60;;;;;;5035290;28;20129;-78
2020/12/07 05:39:34;;;;;;;7.82;5.07;;;154.30;2073.60;;;;;;5033730;28;20124;-78
2020/12/07 05:42:02;;;;;;;7.72;4.63;;;154.20;2073.60;;;;;;5034727;28;20364;-79
2020/12/07 05:44:30;;;;;;;9.40;4.57;;;154.30;2048.00;;;;;;5034068;28;20029;-78
2020/12/07 05:46:58;;;;;;;9.55;4.60;;;154.30;2073.60;;;;;;5034316;28;20044;-78
2020/12/07 05:49:27;;;;;;;8.55;5.03;;;154.30;2048.00;;;;;;5035065;28;20463;-78
2020/12/07 05:52:02;;;;;;;10.23;4.82;;;154.30;2073.60;;;;;;5035050;28;20022;-79
2020/12/07 05:54:28;;;;;;;6.78;4.20;;;154.30;2048.00;;;;;;5034994;28;20538;-78
2020/12/07 05:56:57;;;;;;;7.40;4.38;;;154.30;2048.00;;;;;;5034905;28;20456;-79
2020/12/07 05:59:29;;;;;;;6.60;3.88;;;154.30;2048.00;;;;;;5034805;28;20037;-78
2020/12/07 06:02:12;;;;;;;11.48;5.63;;;154.40;2048.00;;;;;;5034857;28;20036;-79
2020/12/07 06:04:37;;;;;;;6.88;4.28;;;154.40;2048.00;;;;;;5034107;28;20022;-78
2020/12/07 06:07:06;;;;;;;6.60;4.15;;;154.40;2022.40;;;;;;5034875;28;20937;-78
2020/12/07 06:09:32;;;;;;;8.60;4.13;;;154.50;2022.40;;;;;;5033313;28;20080;-78
2020/12/07 06:12:07;;;;;;;7.78;4.28;;;154.50;2022.40;;;;;;5034644;28;20375;-79
2020/12/07 06:14:33;;;;;;;6.63;4.65;;;154.50;2022.40;;;;;;5034767;28;20029;-79
2020/12/07 06:16:59;;;;;;;7.10;4.07;;;154.50;2022.40;;;;;;5034821;28;20025;-78
2020/12/07 06:19:25;;;;;;;7.20;3.78;;;154.50;2022.40;;;;;;5034912;28;20041;-79
2020/12/07 06:22:01;;;;;;;10.38;4.15;;;179.20;2022.40;;;;;;5034525;28;20348;-78
2020/12/07 06:24:40;;;;;;;6.30;3.70;;;179.20;2022.40;;;;;;5034668;28;20417;-78
2020/12/07 06:27:12;;;;;;;5.55;3.63;;;179.20;2022.40;;;;;;5034590;28;20021;-79
2020/12/07 06:29:38;;;;;;;10.70;4.72;;;179.20;1996.80;;;;;;5033702;28;20025;-78
2020/12/07 06:32:04;;;;;;;13.57;4.38;;;179.20;1996.80;;;;;;5034306;28;20025;-78
2020/12/07 06:34:34;;;;;;;6.70;3.80;;;179.20;1996.80;;;;;;5033592;28;20064;-78
2020/12/07 06:37:00;;;;;;;5.68;4.10;;;179.30;1996.80;;;;;;5034258;28;20390;-78
2020/12/07 06:39:26;;;;;;;8.02;4.38;;;179.30;1996.80;;;;;;5034483;28;20033;-78
2020/12/07 06:41:56;;;;;;;16.00;9.07;;;179.30;1996.80;;;;;;5034334;28;20039;-78
2020/12/07 06:44:23;;;;;;;12.18;5.50;;;179.30;1996.80;;;;;;5034303;28;20375;-77
2020/12/07 06:49:41;;;;;;;11.45;5.13;;;179.40;1971.20;;;;;;5034188;28;20025;-78
2020/12/07 06:52:13;;;;;;;7.07;3.97;;;179.40;1971.20;;;;;;5033849;28;20018;-77
2020/12/07 06:57:29;;;;;;;8.75;4.43;;;179.40;1971.20;;;;;;5031217;28;20045;-78
2020/12/07 07:00:01;;;;;;;13.93;5.20;;;179.50;1971.20;;;;;;5029356;28;20052;-76
2020/12/07 07:02:28;;;;;;;8.77;4.28;;;179.50;1945.60;;;;;;5030640;28;20113;-77
2020/12/07 07:04:55;;;;;;;9.77;5.22;;;179.50;1971.20;;;;;;5033986;28;20022;-78
2020/12/07 07:07:23;;;;;;;5.55;2.92;;;179.50;1945.60;;;;;;5033814;28;20037;-78
2020/12/07 07:09:49;;;;;;;8.93;3.35;;;179.50;1945.60;;;;;;5032891;28;20029;-78
2020/12/07 07:12:15;;;;;;;6.80;4.47;;;179.50;1945.60;;;;;;5031524;28;20029;-77
2020/12/07 07:14:42;;;;;;;6.68;2.78;;;179.50;1945.60;;;;;;5033688;28;20087;-78
2020/12/07 07:17:09;;;;;;;5.35;3.15;;;179.50;1945.60;;;;;;5027805;28;20439;-77
2020/12/07 07:19:35;;;;;;;8.07;4.15;;;179.50;1945.60;;;;;;5031896;28;20045;-78
2020/12/07 07:22:02;;;;;;;12.25;4.43;;;179.60;1945.60;;;;;;5033132;28;20514;-78
2020/12/07 07:24:33;;;;;;;14.85;8.30;;;179.60;1945.60;;;;;;5033656;28;20379;-76
2020/12/07 07:27:54;;;;;;;19.63;10.25;;;179.60;1920.00;;;;;;5033389;28;20048;-79
2020/12/07 07:29:46;;;;;;;14.13;7.32;;;179.60;1920.00;;;;;;5013720;28;20022;-79
2020/12/07 07:32:13;;;;;;;25.38;10.55;;;179.60;1920.00;;;;;;5022677;28;20033;-77
2020/12/07 07:34:43;;;;;;;9.52;5.55;;;179.60;1920.00;;;;;;5032108;28;20021;-78
2020/12/07 07:37:08;;;;;;;9.07;4.70;;;179.60;1920.00;;;;;;5033316;28;20491;-79
2020/12/07 07:39:34;;;;;;;9.43;4.68;;;179.70;1920.00;;;;;;5030627;28;20036;-77
2020/12/07 07:42:12;;;;;;;8.38;4.22;;;179.70;1920.00;;;;;;5030363;28;20051;-77
2020/12/07 07:44:46;;;;;;;9.65;4.13;;;179.70;1920.00;;;;;;5033396;28;20025;-78
2020/12/07 07:47:19;;;;;;;6.57;3.08;;;179.70;1894.40;;;;;;5035725;28;20033;-78
2020/12/07 08:17:54;;;;;;;7.05;3.65;;;179.80;1843.20;;;;;;4956447;28;20054;-78
2020/12/07 08:20:24;;;;;;;7.85;3.65;;;179.80;1843.20;;;;;;4956383;28;20038;-78
2020/12/07 08:23:00;;;;;;;10.73;5.57;;;179.80;1843.20;;;;;;4941205;28;20397;-79
2020/12/07 08:25:51;;;;;;;9.73;4.30;;;179.90;1843.20;;;;;;4928415;29;20130;-79
2020/12/07 08:28:23;;;;;;;12.00;4.38;;;179.90;1843.20;;;;;;4930328;29;20095;-79
2020/12/07 08:31:12;;;;;;;10.18;3.30;;;180.00;1843.20;;;;;;4930668;29;20039;-79
2020/12/07 08:37:00;;;;;;;8.45;2.67;;;180.00;1843.20;;;;;;4967886;28;20106;-78
2020/12/07 08:39:25;;;;;;;7.65;2.42;;;180.00;1843.20;;;;;;4975027;28;20035;-78
2020/12/07 08:41:51;;;;;;;4.00;2.25;;;180.00;1843.20;;;;;;4983742;28;20044;-77
2020/12/07 08:44:17;;;;;;;3.67;1.90;;;180.00;1843.20;;;;;;5025158;28;20032;-79
2020/12/07 08:46:42;;;;;;;6.80;2.55;;;180.00;1843.20;;;;;;5067708;28;20029;-78
2020/12/07 08:49:08;;;;;;;4.75;2.92;;;180.10;1817.60;;;;;;5036053;28;20467;-78
2020/12/07 08:51:35;;;;;;;12.77;5.50;;;180.10;1843.20;;;;;;5035302;28;20026;-78
2020/12/07 08:54:02;;;;;;;8.95;3.42;;;204.80;1817.60;;;;;;5034384;28;20155;-78
2020/12/07 08:56:28;;;;;;;13.07;5.85;;;204.80;1817.60;;;;;;5034756;28;20030;-79
2020/12/07 08:58:53;;;;;;;5.10;2.72;;;204.80;1817.60;;;;;;5034001;28;20044;-78
2020/12/07 09:01:19;;;;;;;12.73;3.95;;;204.80;1817.60;;;;;;5035817;28;20438;-79
2020/12/07 09:04:02;;;;;;;6.38;2.83;;;204.90;1817.60;;;;;;5031454;28;20032;-78
2020/12/07 09:06:28;;;;;;;10.43;3.15;;;204.80;1817.60;;;;;;5026882;28;20032;-77
2020/12/07 09:08:54;;;;;;;12.98;5.68;;;204.80;1817.60;;;;;;5033722;28;20029;-78
2020/12/07 09:11:20;;;;;;;8.38;3.63;;;204.80;1817.60;;;;;;5034237;28;20033;-78
2020/12/07 09:13:46;;;;;;;10.35;4.85;;;204.80;1817.60;;;;;;5035353;28;20025;-79
2020/12/07 09:16:12;;;;;;;16.58;7.85;;;180.10;1843.20;;;;;;5034843;28;20025;-78
2020/12/07 09:18:38;;;;;;;4.32;2.03;;;180.00;1843.20;;;;;;5034890;28;20111;-80
2020/12/07 09:21:05;;;;;;;5.13;2.90;;;180.00;1843.20;;;;;;5015143;28;20057;-78
2020/12/07 09:23:31;;;;;;;5.60;2.45;;;179.90;1843.20;;;;;;5015403;28;20067;-77
2020/12/07 09:25:58;;;;;;;9.00;5.00;;;179.80;1894.40;;;;;;5015270;28;20543;-79
2020/12/07 09:28:23;;;;;;;4.45;2.25;;;179.80;1894.40;;;;;;5015419;28;20026;-79
2020/12/07 09:30:49;;;;;;;5.93;3.15;;;179.70;1920.00;;;;;;5064203;28;20025;-78
2020/12/07 09:37:28;;;;;;;2.97;2.03;;;179.60;1945.60;;;;;;5035294;28;20047;-78
2020/12/07 09:39:53;;;;;;;5.78;2.83;;;179.50;1945.60;;;;;;5034726;28;20112;-80
2020/12/07 09:42:19;;;;;;;4.80;2.50;;;179.50;1971.20;;;;;;5034639;28;20068;-80
2020/12/07 09:44:45;;;;;;;3.53;2.00;;;179.40;1971.20;;;;;;5033493;28;20029;-78
2020/12/07 09:47:10;;;;;;;5.40;2.90;;;179.40;1971.20;;;;;;5033704;28;20026;-78
2020/12/07 09:49:36;;;;;;;4.97;2.97;;;179.40;1971.20;;;;;;5033466;28;20144;-78
2020/12/07 09:52:02;;;;;;;4.72;2.28;;;179.40;1971.20;;;;;;5034165;28;20033;-78
2020/12/07 09:54:28;;;;;;;5.18;2.40;;;179.30;1971.20;;;;;;5033098;28;20112;-78
2020/12/07 09:56:53;;;;;;;4.18;2.50;;;179.40;1971.20;;;;;;5033508;28;20026;-77
2020/12/07 09:59:19;;;;;;;3.55;1.98;;;179.30;1996.80;;;;;;5034142;28;20038;-78
2020/12/07 10:01:45;;;;;;;10.00;3.33;;;179.30;1971.20;;;;;;5034478;28;20049;-78
2020/12/07 10:04:11;;;;;;;5.07;2.88;;;179.30;1996.80;;;;;;5034686;28;20108;-78
2020/12/07 10:06:36;;;;;;;5.20;2.90;;;179.30;1996.80;;;;;;5032854;28;20029;-78
2020/12/07 10:09:02;;;;;;;3.15;1.58;;;179.30;2022.40;;;;;;5033628;28;20029;-78
2020/12/07 10:11:28;;;;;;;3.33;1.50;;;179.20;1996.80;;;;;;5034387;28;20525;-78
2020/12/07 10:13:54;;;;;;;3.05;1.55;;;179.20;1996.80;;;;;;5023609;28;20095;-78
2020/12/07 10:16:19;;;;;;;7.45;3.22;;;179.20;1996.80;;;;;;5024655;28;20038;-79
2020/12/07 10:18:46;;;;;;;5.45;2.78;;;179.20;2022.40;;;;;;5034020;28;20038;-79
2020/12/07 10:21:11;;;;;;;7.35;3.40;;;179.20;2022.40;;;;;;5034223;28;20033;-78
2020/12/07 10:23:37;;;;;;;3.35;2.13;;;179.20;2022.40;;;;;;5033919;28;20051;-79
2020/12/07 10:26:03;;;;;;;8.77;4.30;;;179.20;2022.40;;;;;;5033286;28;20485;-78
2020/12/07 10:28:29;;;;;;;4.07;1.30;;;179.20;2022.40;;;;;;5032827;28;20036;-78
2020/12/07 10:30:54;;;;;;;4.30;1.73;;;179.20;2022.40;;;;;;5033144;28;20434;-78
2020/12/07 10:33:20;;;;;;;7.43;2.70;;;154.50;1996.80;;;;;;5023812;28;20418;-76
2020/12/07 10:35:46;;;;;;;5.60;1.95;;;154.50;2022.40;;;;;;5032358;28;20529;-76
2020/12/07 10:38:12;;;;;;;3.33;1.63;;;179.20;2022.40;;;;;;5032929;28;20662;-77
2020/12/07 10:40:38;;;;;;;2.28;1.38;;;154.50;2022.40;;;;;;5033828;28;20108;-77
2020/12/07 10:43:03;;;;;;;2.38;1.50;;;154.50;1996.80;;;;;;5065736;28;20038;-77
2020/12/07 10:45:29;;;;;;;2.70;1.40;;;154.50;2022.40;;;;;;5033710;28;20052;-77
2020/12/07 10:47:55;;;;;;;3.42;2.03;;;179.20;1996.80;;;;;;5033670;28;20064;-78
2020/12/07 10:50:21;;;;;;;4.32;2.08;;;179.20;2022.40;;;;;;5033537;28;20034;-77
2020/12/07 10:52:48;;;;;;;6.22;2.63;;;154.50;2022.40;;;;;;5032711;28;20025;-77
2020/12/07 10:55:14;;;;;;;12.15;3.85;;;154.50;2022.40;;;;;;5032392;28;20570;-77
2020/12/07 10:57:40;;;;;;;12.70;5.05;;;179.20;2022.40;;;;;;5034061;28;20117;-77
2020/12/07 11:00:06;;;;;;;7.93;3.28;;;179.20;2022.40;;;;;;5034231;28;20098;-78
2020/12/07 11:02:32;;;;;;;5.80;2.75;;;179.20;2022.40;;;;;;5030893;28;20041;-76
2020/12/07 11:08:35;;;;;;;6.25;2.15;;;154.50;2048.00;;;;;;5033176;28;20498;-77
2020/12/07 11:11:01;;;;;;;3.78;1.95;;;154.50;2048.00;;;;;;5032962;28;20030;-77
2020/12/07 11:13:41;;;;;;;2.88;1.95;;;154.50;2073.60;;;;;;5031412;28;20025;-78
2020/12/07 11:16:11;;;;;;;3.15;2.10;;;154.40;2073.60;;;;;;5032341;28;20021;-78
2020/12/07 11:18:37;;;;;;;6.63;1.85;;;154.40;2073.60;;;;;;5032845;28;20041;-77
2020/12/07 11:21:07;;;;;;;8.13;2.17;;;154.40;2073.60;;;;;;5035381;28;20026;-79
2020/12/07 11:23:33;;;;;;;6.45;1.90;;;154.40;2073.60;;;;;;5037198;28;20025;-78
2020/12/07 11:25:58;;;;;;;3.05;1.80;;;154.40;2073.60;;;;;;5035497;28;20029;-77
2020/12/07 11:28:24;;;;;;;3.08;2.00;;;154.40;2073.60;;;;;;5036783;28;20025;-78
2020/12/07 11:30:50;;;;;;;2.05;1.48;;;154.40;2073.60;;;;;;5036892;28;20017;-77
2020/12/07 11:33:16;;;;;;;4.13;1.60;;;154.40;2073.60;;;;;;5037080;28;20056;-78
2020/12/07 16:08:06;;;;;;;3.97;2.65;;;102.80;2227.20;;;;;;5114341;27;1168896;-78
2020/12/07 16:10:31;;;;;;;3.53;2.10;;;102.80;2227.20;;;;;;5131718;27;20268;-77
2020/12/07 16:12:57;;;;;;;6.05;2.35;;;102.80;2227.20;;;;;;5132004;27;20016;-78
2020/12/07 16:15:23;;;;;;;3.45;2.13;;;102.90;2227.20;;;;;;5131016;27;20533;-78
2020/12/07 16:17:49;;;;;;;4.25;2.10;;;102.90;2227.20;;;;;;5130026;28;20050;-80
2020/12/07 16:20:15;;;;;;;4.18;2.58;;;103.00;2227.20;;;;;;5131125;27;20024;-77
2020/12/07 16:22:43;;;;;;;4.72;2.78;;;103.10;2227.20;;;;;;5130298;27;20161;-77
2020/12/07 16:25:08;;;;;;;2.95;2.17;;;103.10;2227.20;;;;;;5130899;27;20023;-78
2020/12/07 16:27:36;;;;;;;3.70;2.40;;;103.20;2227.20;;;;;;5130777;28;20035;-78
2020/12/07 16:30:04;;;;;;;5.43;2.92;;;103.20;2227.20;;;;;;5130751;27;20098;-78
2020/12/07 16:32:29;;;;;;;5.50;2.97;;;103.20;2227.20;;;;;;5130693;27;20031;-78
2020/12/07 16:34:55;;;;;;;3.15;2.03;;;103.30;2227.20;;;;;;5130338;27;20028;-78
2020/12/07 16:37:22;;;;;;;3.40;2.15;;;103.30;2227.20;;;;;;5130683;27;20072;-78
2020/12/07 16:39:49;;;;;;;3.30;1.95;;;103.30;2227.20;;;;;;5130761;27;20576;-78
2020/12/07 16:42:17;;;;;;;4.35;2.63;;;103.30;2227.20;;;;;;5129786;27;20034;-77
2020/12/07 16:44:43;;;;;;;5.50;2.58;;;103.30;2227.20;;;;;;5129611;27;20053;-77
2020/12/07 16:47:09;;;;;;;5.60;3.50;;;103.30;2227.20;;;;;;5120687;28;20392;-79
2020/12/07 16:49:35;;;;;;;3.55;1.88;;;103.30;2227.20;;;;;;5129872;27;20023;-78
2020/12/07 16:52:01;;;;;;;4.05;2.13;;;103.30;2227.20;;;;;;5129528;27;20028;-78
2020/12/07 16:54:27;;;;;;;5.57;3.60;;;103.30;2227.20;;;;;;5130472;27;20051;-77
2020/12/07 16:56:53;;;;;;;5.13;2.17;;;103.30;2227.20;;;;;;5129509;27;20158;-78
2020/12/07 16:59:19;;;;;;;3.45;2.08;;;103.30;2227.20;;;;;;5129581;27;20084;-77
2020/12/07 17:01:45;;;;;;;5.88;3.00;;;103.30;2227.20;;;;;;5129435;27;20096;-78
2020/12/07 17:04:13;;;;;;;4.07;2.05;;;103.30;2227.20;;;;;;5129880;28;20020;-78
2020/12/07 17:06:38;;;;;;;3.22;1.80;;;103.30;2227.20;;;;;;5127845;28;20050;-77
2020/12/07 17:09:05;;;;;;;4.15;1.80;;;103.30;2227.20;;;;;;5129156;28;20024;-78
2020/12/07 17:11:32;;;;;;;2.10;1.58;;;103.30;2227.20;;;;;;5128510;28;20023;-80
2020/12/07 17:13:58;;;;;;;3.42;2.22;;;103.30;2227.20;;;;;;5129099;27;20380;-78
2020/12/07 17:16:24;;;;;;;6.15;3.45;;;103.30;2227.20;;;;;;5129343;27;20035;-78
2020/12/07 17:18:56;;;;;;;6.70;3.63;;;103.30;2227.20;;;;;;5116148;28;20027;-78
2020/12/07 17:21:26;;;;;;;5.82;2.95;;;103.30;2201.60;;;;;;5115965;28;20053;-78
2020/12/07 17:23:52;;;;;;;3.95;2.28;;;103.30;2201.60;;;;;;5113791;28;20042;-79
2020/12/07 17:26:18;;;;;;;4.13;2.75;;;103.30;2201.60;;;;;;5115460;28;20031;-78
2020/12/07 17:28:44;;;;;;;5.57;1.98;;;103.30;2201.60;;;;;;5114905;28;20027;-78
2020/12/07 17:31:10;;;;;;;6.18;3.78;;;103.30;2201.60;;;;;;5115369;28;20110;-79
2020/12/07 17:33:36;;;;;;;3.65;2.13;;;103.30;2201.60;;;;;;5114713;28;20034;-82
2020/12/07 17:36:02;;;;;;;2.50;1.38;;;103.30;2201.60;;;;;;5115347;28;20024;-80
2020/12/07 17:38:27;;;;;;;1.77;1.00;;;103.30;2201.60;;;;;;5115107;28;20020;-81
2020/12/07 17:40:53;;;;;;;1.73;1.17;;;103.30;2201.60;;;;;;5115800;28;20024;-77
2020/12/07 17:43:19;;;;;;;2.60;1.50;;;103.30;2201.60;;;;;;5116060;28;20027;-78